Jekyll Island, GA (31527)

4:32 AM EDT on August 31, 2015 (GMT -0400)
McKinnon | | Change Station
CLOSE
Current Station
Airport
Location: Saint Simons Island,
Elevation: 20 ft
Nearby Weather Stations

Elev 20 ft 31.15 °N, 81.39 °W | Updated 39 minutes ago

Overcast
Overcast
77 °F
Feels Like 77 °F
N
0
Wind Variable Wind from North

Today
High -- | Low -- °F
--% Chance of Precip.
Yesterday
High -- | Low -- °F
Precip. -- in
7:01 AM 7:50 PM
Waning Gibbous, 96% visible
Pressure 29.99 in
Visibility 7.0 miles
Clouds Few 1400 ft
Mostly Cloudy 2200 ft
Overcast 3400 ft
Dew Point 75 °F
Humidity 94%
Rainfall 0.76 in
Snow Depth Not available.
UV 0 out of 12
Pollen 2.90 out of 12
Air Quality Not available.
Flu Activity Not available.
METAR KSSI 310753Z AUTO 00000KT 7SM -RA FEW014 BKN022 OVC034 25/24 A2998 RMK AO2 RAB00 SLP154 P0039 T02500239
Pressure 29.99 in
Visibility 7.0 miles
Clouds Few 1400 ft
Mostly Cloudy 2200 ft
Overcast 3400 ft
Dew Point 75 °F
Humidity 94%
Rainfall 0.76 in
Snow Depth Not available.
UV 0 out of 12
Pollen 2.90 out of 12
Air Quality Not available.
Flu Activity Not available.
METAR KSSI 310753Z AUTO 00000KT 7SM -RA FEW014 BKN022 OVC034 25/24 A2998 RMK AO2 RAB00 SLP154 P0039 T02500239

10-Day Weather Forecast

×

Almanac

Astronomy

Aug. 31, 2015 Rise Set
Actual Time
Civil Twilight
Nautical Twilight
Astronomical Twilight
Moon
Length of Visible Light
Length of Day
Tomorrow will be .
, % of the Moon is Illuminated

Today's Extremes

State Highs State Lows

Community

WunderPhotos

Upload Photos

1,851,220 photos uploaded!

WunderBlogs® & News

Nearby

Air Quality

  Air Quality AQ Index Pollutant
Not available.

Snow Depth

Station Depth Elevation

Earthquake Activity

City Distance Mag. Time & Date
Minimum magnitude displayed is 2.5.

Coastal Water Temperatures

Place Temperature

Stations

Nearby Weather Stations

Station Location Temp. Windchill Dew Point Humidity Wind Precip. Elev Updated Type